Weather reports worldwide

Advertisment
Aragues Del Puerto, Spain (8095): temperature & dewpoint: 20.09.2018 17:00:00 - 26.09.2018 17:00:00 (CEST)Aragues Del Puerto, Spain (8095): wind speed & gusts: 20.09.2018 17:00:00 - 26.09.2018 17:00:00 (CEST)Aragues Del Puerto, Spain (8095): wind direction: 20.09.2018 17:00:00 - 26.09.2018 17:00:00 (CEST)Aragues Del Puerto, Spain (8095): visibility: 20.09.2018 17:00:00 - 26.09.2018 17:00:00 (CEST)Aragues Del Puerto, Spain (8095): sunshine duration: 20.09.2018 17:00:00 - 26.09.2018 17:00:00 (CEST)Aragues Del Puerto, Spain (8095): precipitation: 20.09.2018 17:00:00 - 26.09.2018 17:00:00 (CEST)
Date & Time tt [°C] td [°C] ff [km/h] ff [kn] fx [km/h] fx [kn] dd vv [km] sd [min] rr [mm]
26.09.2018 17:00:00 - - - - - - - - - -
26.09.2018 16:00:00 23,3 7,0 15 8 31 17 S 20 60 0,0
26.09.2018 15:00:00 23,0 7,1 15 8 32 18 S 20 60 0,0
26.09.2018 14:00:00 21,9 6,5 13 7 31 17 SE 20 58 -
26.09.2018 13:00:00 20,6 6,8 18 10 35 19 SSE 20 58 0,0
26.09.2018 12:00:00 19,3 7,1 20 11 36 20 E 20 60 0,0
26.09.2018 11:00:00 18,3 7,4 13 7 29 16 ESE 20 60 0,0
26.09.2018 10:00:00 16,1 8,4 5 3 16 9 ENE 20 60 0,0
26.09.2018 09:00:00 13,0 8,3 8 4 15 8 NE 20 2 0,0
26.09.2018 08:00:00 13,5 8,1 8 4 21 11 ENE 20 0 -
26.09.2018 07:00:00 12,6 7,4 11 6 22 12 NNE 20 0 0,0
26.09.2018 06:00:00 12,3 7,8 14 7 24 13 NNE 20 0 0,0
26.09.2018 05:00:00 12,6 8,1 8 4 21 11 NNE 20 0 0,0
26.09.2018 04:00:00 12,4 7,7 12 7 23 13 NNE 20 0 0,0
26.09.2018 03:00:00 12,8 7,7 14 8 22 12 NNE 20 0 0,0
26.09.2018 02:00:00 13,0 7,7 13 7 20 11 NNE 20 0 -
26.09.2018 01:00:00 13,6 7,6 8 5 21 11 NNE 20 0 0,0
26.09.2018 00:00:00 13,6 7,1 10 5 22 12 NNE 20 0 0,0
25.09.2018 23:00:00 13,6 7,1 10 5 19 10 NNE 20 0 0,0
25.09.2018 22:00:00 14,0 7,6 11 6 18 10 NNE 20 0 0,0
25.09.2018 21:00:00 15,4 7,4 8 5 15 8 N 20 0 0,0
25.09.2018 20:00:00 - - - - - - - - - -
25.09.2018 19:00:00 19,9 7,0 10 6 19 11 SW 20 44 0,0
25.09.2018 18:00:00 22,2 6,4 9 5 21 11 S 20 60 0,0
25.09.2018 17:00:00 22,7 6,4 9 5 22 12 SW 20 60 0,0
25.09.2018 16:00:00 22,5 5,8 11 6 24 13 WSW 20 60 0,0
25.09.2018 15:00:00 21,8 6,1 8 4 24 13 WSW 20 60 0,0
25.09.2018 14:00:00 20,7 5,9 13 7 24 13 SW 20 60 -
25.09.2018 13:00:00 19,9 5,5 11 6 19 10 SW 20 60 0,0
25.09.2018 12:00:00 18,9 4,3 6 3 12 7 SE 20 60 0,0
25.09.2018 11:00:00 15,8 4,8 5 3 10 5 SE 20 60 0,0
25.09.2018 10:00:00 12,4 5,6 4 2 7 4 E 20 60 0,0
25.09.2018 09:00:00 7,7 3,8 2 1 5 3 NNE 20 2 0,0
25.09.2018 08:00:00 7,7 3,0 3 2 6 3 W 20 0 -
25.09.2018 07:00:00 7,0 2,9 2 1 4 2 N 20 0 0,0
25.09.2018 06:00:00 7,5 2,7 2 1 4 2 NNW 20 0 0,0
25.09.2018 05:00:00 8,1 1,9 1 1 4 2 E 20 0 0,0
25.09.2018 04:00:00 8,4 1,5 1 1 3 2 S 20 0 0,0
25.09.2018 03:00:00 8,4 1,5 1 1 4 2 N 20 0 0,0
25.09.2018 02:00:00 8,3 1,9 1 1 5 3 SSW 20 0 -
25.09.2018 01:00:00 9,0 1,9 2 1 9 5 NNW 20 0 0,0
25.09.2018 00:00:00 9,2 1,9 1 1 8 5 SSW 20 0 0,0
24.09.2018 23:00:00 10,5 1,9 1 1 8 4 S 20 0 0,0
24.09.2018 22:00:00 11,4 2,1 5 3 9 5 NNE 20 0 0,0
24.09.2018 21:00:00 13,5 1,5 2 1 9 5 ENE 20 0 0,0
24.09.2018 20:00:00 16,2 0,0 4 2 11 6 ENE 20 0 -
24.09.2018 19:00:00 19,9 -0,7 4 2 18 10 E 20 45 0,0
24.09.2018 18:00:00 23,0 -1,2 11 6 25 14 SW 20 60 0,0
24.09.2018 17:00:00 24,2 -3,3 14 8 26 14 SW 20 60 0,0
24.09.2018 16:00:00 25,2 -3,3 13 7 25 13 SW 20 60 0,0
24.09.2018 15:00:00 25,0 -2,5 13 7 25 13 SSW 20 60 0,0
24.09.2018 14:00:00 24,1 -1,7 10 5 27 15 WSW 20 60 -
24.09.2018 13:00:00 22,7 4,6 13 7 23 12 SW 20 60 0,0
24.09.2018 12:00:00 21,8 6,1 12 7 28 15 SW 20 60 0,0
24.09.2018 11:00:00 21,0 8,9 6 3 12 6 E 20 60 0,0
24.09.2018 10:00:00 18,7 10,0 4 2 10 5 SE 20 60 0,0
24.09.2018 09:00:00 14,9 10,5 4 2 17 9 SSW 20 3 0,0
24.09.2018 08:00:00 14,7 10,9 4 2 13 7 SSW 20 0 -
24.09.2018 07:00:00 14,8 10,8 5 3 15 8 WSW 20 0 0,0
24.09.2018 06:00:00 14,8 10,4 5 3 10 6 WNW 20 0 0,0
24.09.2018 05:00:00 14,8 10,2 5 3 11 6 NW 20 0 0,0
24.09.2018 04:00:00 14,4 9,8 1 1 8 5 S 20 0 0,0
24.09.2018 03:00:00 14,9 10,0 2 1 9 5 SSW 20 0 0,0
24.09.2018 02:00:00 15,4 10,2 2 1 6 3 NNE 20 0 -
24.09.2018 01:00:00 16,4 10,5 3 1 7 4 NNW 20 0 0,0
24.09.2018 00:00:00 17,8 10,2 3 1 11 6 SSW 20 0 0,0
23.09.2018 23:00:00 18,8 9,6 5 3 16 8 NW 20 0 0,0
23.09.2018 22:00:00 21,6 8,1 11 6 28 15 N 20 0 0,0
23.09.2018 21:00:00 21,8 9,0 14 8 32 17 NNE 20 0 0,0
23.09.2018 20:00:00 22,8 9,9 16 8 40 21 NNE 20 0 -
23.09.2018 19:00:00 25,3 7,0 9 5 29 16 NNW 20 45 0,0
23.09.2018 18:00:00 27,8 6,5 14 7 35 19 W 20 60 0,0
23.09.2018 17:00:00 29,3 7,8 10 5 33 18 W 20 60 0,0
23.09.2018 16:00:00 28,9 8,5 18 10 35 19 WSW 20 60 0,0
23.09.2018 15:00:00 28,8 8,0 15 8 36 19 WSW 20 60 0,0
23.09.2018 14:00:00 28,0 9,3 16 9 27 14 SW 20 60 -
23.09.2018 13:00:00 27,5 9,3 9 5 16 9 SSW 20 60 0,0
23.09.2018 12:00:00 25,7 9,6 9 5 14 7 SSE 20 60 0,0
23.09.2018 11:00:00 22,8 10,5 3 2 9 5 ESE 20 60 0,0
23.09.2018 10:00:00 19,4 10,9 7 4 13 7 NE 20 60 0,0
23.09.2018 09:00:00 15,2 8,3 2 1 4 2 N 20 4 0,0
23.09.2018 08:00:00 14,8 7,3 2 1 6 3 NNE 20 0 -
23.09.2018 07:00:00 15,1 7,4 3 2 6 3 N 20 0 0,0
23.09.2018 06:00:00 15,2 7,0 2 1 11 6 NE 20 0 0,0
23.09.2018 05:00:00 16,0 6,4 1 1 12 6 SE 20 0 0,0
23.09.2018 04:00:00 15,9 6,5 3 2 10 5 S 20 0 0,0
23.09.2018 03:00:00 16,4 7,0 2 1 16 8 NE 20 0 0,0
23.09.2018 02:00:00 16,1 8,1 2 1 10 5 WNW 20 0 -
23.09.2018 01:00:00 16,6 8,0 2 1 15 8 NW 20 0 0,0
23.09.2018 00:00:00 16,7 8,9 2 1 14 7 N 20 0 0,0
22.09.2018 23:00:00 17,6 8,4 6 3 10 5 N 20 0 0,0
22.09.2018 22:00:00 18,1 7,6 3 2 11 6 N 20 0 0,0
22.09.2018 21:00:00 19,7 8,1 5 3 12 7 NNE 20 0 0,0
22.09.2018 20:00:00 22,8 9,6 7 4 14 8 W 20 0 -
22.09.2018 19:00:00 25,0 9,3 3 2 39 21 E 20 46 0,0
22.09.2018 18:00:00 26,9 9,3 10 6 37 20 WSW 20 60 0,0
22.09.2018 17:00:00 27,4 8,8 17 9 45 24 WSW 20 60 0,0
22.09.2018 16:00:00 27,7 8,5 14 8 32 18 WSW 20 60 0,0
22.09.2018 15:00:00 27,1 9,9 10 5 26 14 S 20 60 0,0
22.09.2018 14:00:00 26,6 9,9 11 6 27 15 SSW 20 60 -
22.09.2018 13:00:00 25,5 9,7 10 6 21 12 WSW 20 60 0,0
22.09.2018 12:00:00 23,7 9,7 6 4 14 8 S 20 60 0,0
22.09.2018 11:00:00 20,4 10,8 4 2 7 4 ENE 20 60 0,0
22.09.2018 10:00:00 17,3 10,6 4 2 8 4 ENE 20 60 0,0
22.09.2018 09:00:00 13,3 9,9 1 1 5 3 NE 20 4 0,0
22.09.2018 08:00:00 13,0 9,4 1 1 8 4 NNE 20 0 -
22.09.2018 07:00:00 13,3 9,2 3 1 7 4 N 20 0 0,0
22.09.2018 06:00:00 14,0 9,2 6 3 11 6 NNE 20 0 0,0
22.09.2018 05:00:00 13,7 9,2 3 2 8 5 W 20 0 0,0
22.09.2018 04:00:00 14,5 8,7 2 1 10 6 N 20 0 0,0
22.09.2018 03:00:00 14,6 8,3 3 2 8 5 NNE 20 0 0,0
22.09.2018 02:00:00 14,4 8,4 2 1 8 4 NW 20 0 -
22.09.2018 01:00:00 15,0 8,0 3 2 10 5 W 20 0 0,0
22.09.2018 00:00:00 15,7 8,0 5 3 15 8 N 20 0 0,0
21.09.2018 23:00:00 16,3 7,3 5 3 10 5 WNW 20 0 0,0
21.09.2018 22:00:00 17,0 5,3 6 3 15 8 N 20 0 0,0
21.09.2018 21:00:00 18,2 3,6 9 5 16 9 N 20 0 0,0
21.09.2018 20:00:00 20,7 4,3 5 3 13 7 NNE 20 0 -
21.09.2018 19:00:00 22,9 1,9 6 3 32 17 W 20 43 0,0
21.09.2018 18:00:00 25,0 3,6 10 6 29 15 WSW 20 60 0,0
21.09.2018 17:00:00 25,1 9,4 6 4 26 14 N 20 55 0,0
21.09.2018 16:00:00 26,0 4,5 13 7 31 17 SW 20 60 0,0
21.09.2018 15:00:00 26,9 6,2 6 4 24 13 SW 20 60 0,0
21.09.2018 14:00:00 26,2 9,0 8 4 23 13 W 20 60 -
21.09.2018 13:00:00 25,8 10,8 9 5 19 10 SW 20 60 0,0
21.09.2018 12:00:00 23,9 12,8 8 4 16 9 W 20 48 0,0
21.09.2018 11:00:00 22,8 13,1 3 2 13 7 E 20 58 0,0
21.09.2018 10:00:00 20,2 12,6 7 4 20 11 NNE 20 37 0,0
21.09.2018 09:00:00 18,1 11,9 14 7 19 10 NNE 20 5 0,0
21.09.2018 08:00:00 17,7 11,7 5 3 22 12 NNE 20 0 -
21.09.2018 07:00:00 17,3 11,3 8 5 24 13 NNE 20 0 0,0
21.09.2018 06:00:00 17,7 11,2 12 6 23 12 NNE 20 0 0,0
21.09.2018 05:00:00 17,5 11,3 10 6 22 12 NNE 20 0 0,0
21.09.2018 04:00:00 18,3 11,1 13 7 23 12 NNE 20 0 0,0
21.09.2018 03:00:00 18,0 11,1 8 4 22 12 N 20 0 0,0
21.09.2018 02:00:00 18,3 11,3 11 6 22 12 NNE 20 0 -
21.09.2018 01:00:00 19,0 11,3 15 8 24 13 NNE 20 0 0,0
21.09.2018 00:00:00 18,3 11,3 16 8 22 12 NNE 20 0 0,0
20.09.2018 23:00:00 18,8 11,3 10 6 22 12 NNE 20 0 0,0
20.09.2018 22:00:00 19,1 11,1 8 4 24 13 N 20 0 0,0
20.09.2018 21:00:00 20,0 11,0 10 5 23 12 NNE 20 0 0,0
20.09.2018 20:00:00 23,0 11,1 6 4 15 8 NNE 20 0 -
20.09.2018 19:00:00 25,0 10,0 8 4 16 9 NNE 20 44 0,0
20.09.2018 18:00:00 26,2 11,6 5 3 34 18 ENE 20 41 0,0
20.09.2018 17:00:00 28,0 8,8 9 5 25 14 SSE 20 51 0,0

tt = temperature
td = dewpoint
ff = wind speed
fx = gusts
dd = wind direction
vv = visibility
sd = sunshine duration
rr = precipitation

Next stations